createdAt,value
2018-01-06T00:02:17.616Z,92.70
2018-01-06T00:04:46.235Z,92.30
2018-01-06T00:07:14.560Z,92.40
2018-01-06T00:09:43.659Z,92.40
2018-01-06T00:12:12.725Z,92.20
2018-01-06T00:14:42.218Z,92.30
2018-01-06T00:17:10.518Z,92.20
2018-01-06T00:19:39.186Z,92.30
2018-01-06T00:22:09.304Z,92.50
2018-01-06T00:24:37.492Z,92.30
2018-01-06T00:27:06.485Z,92.40
2018-01-06T00:29:35.339Z,91.90
2018-01-06T00:32:03.818Z,91.90
2018-01-06T00:34:32.756Z,91.90
2018-01-06T00:37:01.211Z,91.70
2018-01-06T00:39:30.896Z,91.70
2018-01-06T00:42:00.125Z,91.80
2018-01-06T00:44:28.803Z,91.90
2018-01-06T00:46:58.178Z,91.70
2018-01-06T00:49:27.663Z,91.90
2018-01-06T00:51:56.920Z,91.90
2018-01-06T00:54:25.576Z,91.80
2018-01-06T00:56:55.623Z,91.90
2018-01-06T00:59:24.557Z,91.90
2018-01-06T01:01:53.637Z,92.00
2018-01-06T01:04:23.590Z,92.10
2018-01-06T01:06:51.860Z,92.00
2018-01-06T01:09:20.617Z,91.90
2018-01-06T01:11:49.461Z,91.90
2018-01-06T01:14:20.323Z,92.00
2018-01-06T01:16:49.974Z,92.00
2018-01-06T01:19:18.141Z,92.30
2018-01-06T01:21:46.322Z,92.20
2018-01-06T01:24:15.300Z,92.30
2018-01-06T01:26:44.757Z,92.20
2018-01-06T01:29:13.955Z,92.10
2018-01-06T01:31:42.777Z,92.10
2018-01-06T01:34:11.915Z,92.30
2018-01-06T01:36:41.279Z,92.20
2018-01-06T01:39:10.824Z,92.20
2018-01-06T01:41:38.974Z,92.10
2018-01-06T01:44:08.354Z,92.10
2018-01-06T01:46:36.658Z,92.10
2018-01-06T01:49:05.280Z,91.90
2018-01-06T01:51:34.706Z,92.00
2018-01-06T01:54:03.518Z,91.90
2018-01-06T01:56:32.136Z,92.10
2018-01-06T01:59:00.829Z,92.20
2018-01-06T02:01:29.323Z,92.20
2018-01-06T02:03:58.439Z,92.20
2018-01-06T02:06:27.987Z,92.30
2018-01-06T02:08:56.639Z,92.30
2018-01-06T02:11:26.005Z,92.30
2018-01-06T02:13:54.322Z,92.30
2018-01-06T02:16:23.806Z,92.40
2018-01-06T02:18:53.477Z,92.30
2018-01-06T02:21:22.223Z,92.30
2018-01-06T02:23:51.099Z,92.30
2018-01-06T02:26:20.201Z,92.30
2018-01-06T02:28:48.580Z,92.30
2018-01-06T02:31:17.295Z,92.20
2018-01-06T02:33:46.233Z,92.20
2018-01-06T02:36:14.924Z,92.00
2018-01-06T02:38:43.541Z,91.90
2018-01-06T02:41:12.140Z,91.70
2018-01-06T02:43:40.589Z,91.60
2018-01-06T02:46:09.540Z,91.70
2018-01-06T02:48:38.948Z,91.70
2018-01-06T02:51:07.524Z,91.80
2018-01-06T02:53:36.280Z,92.00
2018-01-06T02:56:05.208Z,92.10
2018-01-06T02:58:33.734Z,92.10
2018-01-06T03:01:02.200Z,92.10
2018-01-06T03:03:30.708Z,92.20
2018-01-06T03:05:59.144Z,92.30
2018-01-06T03:08:27.499Z,92.20
2018-01-06T03:10:56.388Z,92.20
2018-01-06T03:13:25.432Z,91.90
2018-01-06T03:15:54.224Z,91.90
2018-01-06T03:18:22.487Z,91.90
2018-01-06T03:20:52.461Z,92.00
2018-01-06T03:23:21.278Z,92.00
2018-01-06T03:25:50.097Z,92.00
2018-01-06T03:28:19.433Z,92.00
2018-01-06T03:30:48.111Z,92.00
2018-01-06T03:33:16.818Z,92.10
2018-01-06T03:35:45.071Z,92.10
2018-01-06T03:38:13.722Z,92.10
2018-01-06T03:40:42.408Z,92.30
2018-01-06T03:43:10.488Z,92.30
2018-01-06T03:45:38.858Z,92.40
2018-01-06T03:48:08.618Z,92.40
2018-01-06T03:50:37.667Z,92.50
2018-01-06T03:53:06.819Z,92.40
2018-01-06T03:55:35.760Z,92.50
2018-01-06T03:58:04.458Z,92.50
2018-01-06T04:00:33.243Z,92.40
2018-01-06T04:03:01.946Z,92.50
2018-01-06T04:05:30.262Z,92.50
2018-01-06T04:07:58.557Z,92.60
2018-01-06T04:10:28.300Z,92.60
2018-01-06T04:12:58.295Z,92.60
2018-01-06T04:15:27.415Z,92.60
2018-01-06T04:17:56.067Z,92.70
2018-01-06T04:20:24.211Z,92.80
2018-01-06T04:22:53.421Z,92.70
2018-01-06T04:25:21.947Z,92.70
2018-01-06T04:27:50.938Z,92.70
2018-01-06T04:30:20.789Z,92.70
2018-01-06T04:32:49.228Z,92.70
2018-01-06T04:35:18.126Z,92.70
2018-01-06T04:37:47.491Z,92.70
2018-01-06T04:40:16.976Z,92.70
2018-01-06T04:42:45.400Z,92.70
2018-01-06T04:45:14.271Z,92.70
2018-01-06T04:47:42.834Z,92.70
2018-01-06T04:50:11.499Z,92.70
2018-01-06T04:52:41.121Z,92.70
2018-01-06T04:55:10.377Z,92.70
2018-01-06T04:57:38.799Z,92.70
2018-01-06T05:00:07.092Z,92.70
2018-01-06T05:02:36.188Z,92.80
2018-01-06T05:05:05.452Z,92.80
2018-01-06T05:07:33.871Z,92.80
2018-01-06T05:10:02.221Z,92.80
2018-01-06T05:12:31.314Z,92.80
2018-01-06T05:14:59.620Z,92.80
2018-01-06T05:17:27.983Z,92.70
2018-01-06T05:19:56.628Z,92.70
2018-01-06T05:22:26.577Z,92.70
2018-01-06T05:24:55.496Z,92.70
2018-01-06T05:27:25.107Z,92.70
2018-01-06T05:29:55.265Z,92.70
2018-01-06T05:32:24.469Z,92.80
2018-01-06T05:34:52.667Z,92.80
2018-01-06T05:37:21.889Z,92.90
2018-01-06T05:39:51.365Z,92.70
2018-01-06T05:42:21.424Z,92.60
2018-01-06T05:44:49.903Z,92.60
2018-01-06T05:47:19.158Z,92.70
2018-01-06T05:49:49.714Z,92.70
2018-01-06T05:52:19.593Z,92.70
2018-01-06T05:54:48.937Z,92.60
2018-01-06T05:57:17.651Z,92.60
2018-01-06T05:59:46.097Z,92.60
2018-01-06T06:02:14.822Z,92.60
2018-01-06T06:04:43.620Z,92.60
2018-01-06T06:07:12.385Z,92.50
2018-01-06T06:09:41.704Z,92.50
2018-01-06T06:12:11.316Z,92.50
2018-01-06T06:14:40.301Z,92.40
2018-01-06T06:17:09.825Z,92.40
2018-01-06T06:19:38.326Z,92.50
2018-01-06T06:22:06.578Z,92.30
2018-01-06T06:24:35.854Z,92.60
2018-01-06T06:27:04.939Z,92.50
2018-01-06T06:29:33.857Z,92.50
2018-01-06T06:32:02.600Z,92.40
2018-01-06T06:34:31.197Z,92.70
2018-01-06T06:37:00.454Z,92.50
2018-01-06T06:39:28.686Z,92.50
2018-01-06T06:41:57.352Z,92.70
2018-01-06T06:44:26.341Z,93.30
2018-01-06T06:46:54.929Z,93.70
2018-01-06T06:49:24.333Z,94.00
2018-01-06T06:51:52.728Z,93.70
2018-01-06T06:54:21.097Z,94.40
2018-01-06T06:56:49.350Z,93.80
2018-01-06T06:59:18.136Z,93.60
2018-01-06T07:01:47.239Z,93.60
2018-01-06T07:04:16.386Z,93.70
2018-01-06T07:06:45.094Z,93.70
2018-01-06T07:09:13.257Z,93.70
2018-01-06T07:11:41.586Z,94.20
2018-01-06T07:14:09.932Z,93.70
2018-01-06T07:16:39.976Z,94.00
2018-01-06T07:19:08.708Z,94.10
2018-01-06T07:21:36.910Z,94.60
2018-01-06T07:24:05.545Z,94.20
2018-01-06T07:26:34.514Z,94.10
2018-01-06T07:29:03.020Z,94.30
2018-01-06T07:31:32.138Z,94.30
2018-01-06T07:34:00.259Z,94.50
2018-01-06T07:36:29.730Z,94.30
2018-01-06T07:38:58.611Z,94.40
2018-01-06T07:41:26.927Z,94.60
2018-01-06T07:43:56.222Z,94.60
2018-01-06T07:46:24.997Z,94.60
2018-01-06T07:48:54.063Z,94.70
2018-01-06T07:51:22.904Z,94.70
2018-01-06T07:53:51.340Z,94.70
2018-01-06T07:56:20.440Z,94.70
2018-01-06T07:58:49.628Z,94.60
2018-01-06T08:01:18.303Z,94.60
2018-01-06T08:03:47.225Z,95.10
2018-01-06T08:06:15.965Z,94.90
2018-01-06T08:08:43.949Z,95.10
2018-01-06T08:11:12.979Z,95.40
2018-01-06T08:13:41.006Z,95.00
2018-01-06T08:16:09.256Z,95.00
2018-01-06T08:18:37.785Z,95.00
2018-01-06T08:21:06.490Z,94.90
2018-01-06T08:23:36.057Z,94.90
2018-01-06T08:26:05.149Z,95.00
2018-01-06T08:28:33.402Z,95.00
2018-01-06T08:31:01.539Z,95.00
2018-01-06T08:33:30.848Z,94.80
2018-01-06T08:35:59.452Z,94.60
2018-01-06T08:38:28.193Z,94.70
2018-01-06T08:40:57.792Z,94.60
2018-01-06T08:43:26.482Z,94.50
2018-01-06T08:45:55.206Z,94.80
2018-01-06T08:48:24.560Z,95.70
2018-01-06T08:50:53.801Z,97.20
2018-01-06T08:53:23.102Z,96.90
2018-01-06T08:55:51.958Z,92.80
2018-01-06T08:58:21.050Z,92.60
2018-01-06T09:00:49.599Z,90.40
2018-01-06T09:03:17.879Z,86.00
2018-01-06T09:05:46.626Z,78.90
2018-01-06T09:08:14.904Z,82.30
2018-01-06T09:10:43.594Z,80.60
2018-01-06T09:13:12.683Z,79.60
2018-01-06T09:15:43.955Z,78.90
2018-01-06T09:18:14.069Z,78.90
2018-01-06T09:20:42.644Z,78.90
2018-01-06T09:23:11.410Z,78.10
2018-01-06T09:25:40.539Z,76.00
2018-01-06T09:28:10.320Z,77.30
2018-01-06T09:30:39.197Z,77.20
2018-01-06T09:33:07.826Z,76.00
2018-01-06T09:35:38.308Z,71.90
2018-01-06T09:38:07.022Z,71.90
2018-01-06T09:40:36.459Z,72.10
2018-01-06T09:43:05.403Z,71.40
2018-01-06T09:45:35.367Z,68.40
2018-01-06T09:48:05.207Z,67.90
2018-01-06T09:50:34.258Z,67.40
2018-01-06T09:53:03.659Z,68.60
2018-01-06T09:55:32.424Z,68.60
2018-01-06T09:58:01.857Z,67.60
2018-01-06T10:00:30.751Z,67.50
2018-01-06T10:02:59.452Z,66.70
2018-01-06T10:05:28.005Z,66.90
2018-01-06T10:07:56.566Z,67.80
2018-01-06T10:10:25.598Z,67.40
2018-01-06T10:12:54.625Z,66.50
2018-01-06T10:15:22.912Z,65.10
2018-01-06T10:17:52.026Z,65.60
2018-01-06T10:20:20.583Z,65.80
2018-01-06T10:22:50.239Z,67.40
2018-01-06T10:25:19.337Z,67.60
2018-01-06T10:27:48.109Z,68.30
2018-01-06T10:30:16.620Z,68.30
2018-01-06T10:32:45.150Z,68.70
2018-01-06T10:35:14.862Z,68.90
2018-01-06T10:37:43.202Z,68.90
2018-01-06T10:40:11.820Z,68.40
2018-01-06T10:42:40.890Z,67.70
2018-01-06T10:45:10.257Z,67.70
2018-01-06T10:47:40.679Z,68.50
2018-01-06T10:50:09.229Z,68.70
2018-01-06T10:52:37.349Z,68.40
2018-01-06T10:55:06.549Z,67.10
2018-01-06T10:57:35.686Z,65.30
2018-01-06T11:00:04.647Z,64.80
2018-01-06T11:02:33.023Z,64.30
2018-01-06T11:05:02.166Z,64.70
2018-01-06T11:07:31.703Z,64.00
2018-01-06T11:10:00.156Z,64.60
2018-01-06T11:12:28.961Z,65.00
2018-01-06T11:14:57.429Z,63.50
2018-01-06T11:17:26.472Z,63.20
2018-01-06T11:19:54.936Z,62.30
2018-01-06T11:22:23.786Z,62.60
2018-01-06T11:24:52.783Z,62.90
2018-01-06T11:27:22.099Z,63.60
2018-01-06T11:29:50.499Z,64.40
2018-01-06T11:32:19.829Z,65.60
2018-01-06T11:34:49.282Z,65.70
2018-01-06T11:37:18.400Z,65.30
2018-01-06T11:39:47.314Z,65.10
2018-01-06T11:42:16.008Z,65.80
2018-01-06T11:44:44.460Z,65.00
2018-01-06T11:47:13.288Z,64.90
2018-01-06T11:49:41.412Z,65.10
2018-01-06T11:52:11.943Z,64.90
2018-01-06T11:54:41.890Z,65.50
2018-01-06T11:57:11.353Z,65.40
2018-01-06T11:59:40.260Z,64.70
2018-01-06T12:02:08.944Z,64.50
2018-01-06T12:04:38.418Z,65.20
2018-01-06T12:07:07.210Z,65.20
2018-01-06T12:09:37.450Z,64.80
2018-01-06T12:12:06.030Z,65.30
2018-01-06T12:14:34.387Z,65.50
2018-01-06T12:17:02.696Z,65.10
2018-01-06T12:19:30.937Z,66.10
2018-01-06T12:22:00.300Z,66.40
2018-01-06T12:24:28.850Z,66.50
2018-01-06T12:26:56.864Z,66.50
2018-01-06T12:29:27.077Z,66.70
2018-01-06T12:31:55.589Z,67.00
2018-01-06T12:34:23.880Z,67.50
2018-01-06T12:36:53.735Z,67.80
2018-01-06T12:39:22.508Z,67.70
2018-01-06T12:41:50.828Z,68.10
2018-01-06T12:44:18.951Z,68.30
2018-01-06T12:46:47.684Z,67.90
2018-01-06T12:49:16.183Z,67.40
2018-01-06T12:51:44.458Z,67.10
2018-01-06T12:54:14.063Z,67.60
2018-01-06T12:56:43.009Z,67.90
2018-01-06T12:59:11.394Z,68.30
2018-01-06T13:01:39.875Z,68.30
2018-01-06T13:04:08.468Z,67.90
2018-01-06T13:06:36.834Z,68.40
2018-01-06T13:09:06.770Z,68.40
2018-01-06T13:11:36.344Z,68.10
2018-01-06T13:14:05.737Z,68.30
2018-01-06T13:16:34.631Z,67.80
2018-01-06T13:19:03.182Z,67.90
2018-01-06T13:21:32.930Z,67.10
2018-01-06T13:24:02.245Z,66.50
2018-01-06T13:26:30.958Z,66.70
2018-01-06T13:29:00.223Z,66.50
2018-01-06T13:31:29.260Z,67.50
2018-01-06T13:33:59.115Z,67.30
2018-01-06T13:36:29.372Z,67.90
2018-01-06T13:38:58.538Z,67.70
2018-01-06T13:41:27.009Z,68.30
2018-01-06T13:43:55.397Z,69.20
2018-01-06T13:46:25.040Z,68.30
2018-01-06T13:48:53.529Z,68.50
2018-01-06T13:51:22.405Z,68.60
2018-01-06T13:53:51.035Z,68.50
2018-01-06T13:56:20.610Z,68.70
2018-01-06T13:58:49.609Z,69.00
2018-01-06T14:01:17.779Z,69.00
2018-01-06T14:03:46.036Z,68.50
2018-01-06T14:06:15.657Z,68.00
2018-01-06T14:08:43.822Z,68.00
2018-01-06T14:11:12.790Z,68.30
2018-01-06T14:13:41.783Z,67.90
2018-01-06T14:16:10.862Z,67.60
2018-01-06T14:18:40.684Z,67.00
2018-01-06T14:21:10.298Z,66.90
2018-01-06T14:23:38.905Z,68.30
2018-01-06T14:26:07.508Z,68.70
2018-01-06T14:28:36.014Z,69.20
2018-01-06T14:31:04.627Z,68.60
2018-01-06T14:33:34.384Z,68.30
2018-01-06T14:36:03.240Z,68.30
2018-01-06T14:38:32.135Z,68.50
2018-01-06T14:41:01.270Z,68.30
2018-01-06T14:43:30.433Z,68.90
2018-01-06T14:45:58.697Z,69.90
2018-01-06T14:48:26.938Z,70.90
2018-01-06T14:50:55.667Z,72.00
2018-01-06T14:53:27.318Z,72.90
2018-01-06T14:55:56.463Z,72.60
2018-01-06T14:58:26.009Z,73.10
2018-01-06T15:00:54.579Z,73.90
2018-01-06T15:03:22.695Z,74.00
2018-01-06T15:05:52.349Z,74.80
2018-01-06T15:08:21.424Z,77.10
2018-01-06T15:10:49.898Z,76.20
2018-01-06T15:13:18.162Z,77.50
2018-01-06T15:15:47.198Z,78.50
2018-01-06T15:18:15.668Z,78.90
2018-01-06T15:20:43.858Z,79.80
2018-01-06T15:23:14.468Z,80.40
2018-01-06T15:25:43.021Z,81.10
2018-01-06T15:28:11.936Z,81.80
2018-01-06T15:30:41.039Z,81.70
2018-01-06T15:33:09.780Z,82.20
2018-01-06T15:35:38.283Z,83.70
2018-01-06T15:38:06.843Z,83.50
2018-01-06T15:40:35.807Z,84.10
2018-01-06T15:43:05.210Z,84.40
2018-01-06T15:45:34.101Z,84.50
2018-01-06T15:48:03.296Z,84.50
2018-01-06T15:50:31.416Z,84.40
2018-01-06T15:53:00.627Z,86.20
2018-01-06T15:55:29.864Z,85.30
2018-01-06T15:57:58.736Z,86.40
2018-01-06T16:00:26.856Z,86.50
2018-01-06T16:02:56.298Z,87.10
2018-01-06T16:05:24.539Z,88.00
2018-01-06T16:07:53.582Z,87.80
2018-01-06T16:10:22.415Z,87.80
2018-01-06T16:12:51.098Z,88.00
2018-01-06T16:15:19.281Z,88.70
2018-01-06T16:17:48.135Z,90.60
2018-01-06T16:20:16.563Z,90.40
2018-01-06T16:22:45.097Z,90.40
2018-01-06T16:25:13.396Z,90.20
2018-01-06T16:27:42.400Z,90.90
2018-01-06T16:30:11.316Z,91.00
2018-01-06T16:32:39.654Z,90.90
2018-01-06T16:35:08.794Z,91.10
2018-01-06T16:37:38.677Z,91.00
2018-01-06T16:40:08.559Z,90.90
2018-01-06T16:42:37.463Z,90.90
2018-01-06T16:45:06.456Z,91.20
2018-01-06T16:47:35.561Z,90.80
2018-01-06T16:50:04.410Z,90.70
2018-01-06T16:52:32.616Z,90.60
2018-01-06T16:55:02.385Z,90.80
2018-01-06T16:57:30.555Z,91.00
2018-01-06T17:00:00.628Z,91.30
2018-01-06T17:02:29.194Z,91.30
2018-01-06T17:04:58.804Z,91.20
2018-01-06T17:07:28.421Z,91.10
2018-01-06T17:09:57.747Z,91.20
2018-01-06T17:12:26.969Z,91.10
2018-01-06T17:14:56.592Z,91.10
2018-01-06T17:17:25.272Z,91.00
2018-01-06T17:19:54.158Z,91.20
2018-01-06T17:22:22.668Z,91.10
2018-01-06T17:24:51.815Z,90.70
2018-01-06T17:27:20.007Z,90.60
2018-01-06T17:29:49.921Z,90.70
2018-01-06T17:32:19.210Z,90.90
2018-01-06T17:34:48.765Z,90.90
2018-01-06T17:37:17.193Z,90.90
2018-01-06T17:39:46.491Z,90.80
2018-01-06T17:42:15.001Z,90.80
2018-01-06T17:44:43.165Z,90.90
2018-01-06T17:47:12.190Z,91.90
2018-01-06T17:49:40.936Z,91.90
2018-01-06T17:52:09.412Z,91.70
2018-01-06T17:54:38.866Z,91.60
2018-01-06T17:57:06.941Z,91.90
2018-01-06T17:59:35.597Z,92.00
2018-01-06T18:02:04.657Z,91.80
2018-01-06T18:04:33.971Z,91.50
2018-01-06T18:07:02.717Z,91.80
2018-01-06T18:09:31.891Z,91.80
2018-01-06T18:12:00.750Z,91.80
2018-01-06T18:14:28.897Z,91.70
2018-01-06T18:16:57.375Z,91.50
2018-01-06T18:19:25.766Z,91.60
2018-01-06T18:21:54.300Z,91.40
2018-01-06T18:24:22.823Z,91.30
2018-01-06T18:26:51.350Z,91.70
2018-01-06T18:29:20.206Z,92.00
2018-01-06T18:31:49.106Z,92.00
2018-01-06T18:34:17.800Z,91.80
2018-01-06T18:36:46.982Z,91.80
2018-01-06T18:39:16.485Z,91.80
2018-01-06T18:41:46.008Z,92.00
2018-01-06T18:44:15.038Z,92.30
2018-01-06T18:46:44.064Z,92.80
2018-01-06T18:49:12.674Z,92.60
2018-01-06T18:51:42.283Z,92.60
2018-01-06T18:54:11.626Z,92.60
2018-01-06T18:56:41.241Z,92.70
2018-01-06T18:59:09.939Z,92.60
2018-01-06T19:01:39.583Z,92.50
2018-01-06T19:04:08.063Z,92.40
2018-01-06T19:06:36.565Z,92.40
2018-01-06T19:09:05.883Z,92.60
2018-01-06T19:11:34.429Z,92.60
2018-01-06T19:14:02.643Z,92.40
2018-01-06T19:16:31.325Z,92.50
2018-01-06T19:19:00.279Z,92.70
2018-01-06T19:21:29.578Z,92.60
2018-01-06T19:23:59.270Z,92.80
2018-01-06T19:26:28.163Z,92.90
2018-01-06T19:28:57.254Z,93.20
2018-01-06T19:31:26.609Z,93.20
2018-01-06T19:33:54.777Z,93.10
2018-01-06T19:36:24.980Z,93.20
2018-01-06T19:38:53.189Z,93.10
2018-01-06T19:41:23.099Z,93.00
2018-01-06T19:43:52.024Z,92.90
2018-01-06T19:46:22.891Z,92.80
2018-01-06T19:48:51.494Z,92.80
2018-01-06T19:51:20.941Z,93.00
2018-01-06T19:53:49.451Z,93.00
2018-01-06T19:56:17.638Z,92.90
2018-01-06T19:58:47.035Z,93.10
2018-01-06T20:01:16.430Z,93.40
2018-01-06T20:03:44.682Z,93.50
2018-01-06T20:06:14.491Z,93.50
2018-01-06T20:08:43.739Z,94.00
2018-01-06T20:11:12.787Z,93.70
2018-01-06T20:13:41.598Z,93.70
2018-01-06T20:16:09.860Z,93.60
2018-01-06T20:18:38.805Z,93.60
2018-01-06T20:21:07.513Z,93.80
2018-01-06T20:23:36.050Z,93.70
2018-01-06T20:26:04.620Z,93.80
2018-01-06T20:28:33.261Z,93.90
2018-01-06T20:31:03.438Z,93.70
2018-01-06T20:33:32.521Z,93.30
2018-01-06T20:36:01.560Z,93.30
2018-01-06T20:38:29.789Z,93.30
2018-01-06T20:40:58.571Z,93.20
2018-01-06T20:43:27.491Z,93.40
2018-01-06T20:45:56.150Z,93.30
2018-01-06T20:48:25.171Z,93.30
2018-01-06T20:50:53.658Z,93.20
2018-01-06T20:53:22.863Z,93.20
2018-01-06T20:55:51.355Z,93.50
2018-01-06T20:58:20.190Z,93.00
2018-01-06T21:00:49.580Z,92.90
2018-01-06T21:03:18.754Z,93.20
2018-01-06T21:05:48.485Z,92.90
2018-01-06T21:08:17.731Z,93.00
2018-01-06T21:10:46.739Z,92.90
2018-01-06T21:13:15.447Z,92.80
2018-01-06T21:15:44.179Z,92.70
2018-01-06T21:18:13.722Z,92.80
2018-01-06T21:20:43.572Z,92.80
2018-01-06T21:23:12.626Z,92.70
2018-01-06T21:25:40.881Z,92.70
2018-01-06T21:28:10.232Z,92.90
2018-01-06T21:30:40.587Z,93.00
2018-01-06T21:33:09.770Z,93.00
2018-01-06T21:35:37.971Z,93.00
2018-01-06T21:38:06.267Z,93.10
2018-01-06T21:40:34.978Z,93.00
2018-01-06T21:43:03.455Z,92.90
2018-01-06T21:45:33.202Z,92.80
2018-01-06T21:48:01.952Z,92.80
2018-01-06T21:50:30.631Z,92.80
2018-01-06T21:52:59.201Z,92.70
2018-01-06T21:55:28.620Z,92.80
2018-01-06T21:57:57.740Z,92.50
2018-01-06T22:00:26.067Z,92.40
2018-01-06T22:02:54.849Z,92.40
2018-01-06T22:05:22.945Z,92.40
2018-01-06T22:07:52.242Z,92.70
2018-01-06T22:10:21.414Z,92.60
2018-01-06T22:12:51.269Z,92.60
2018-01-06T22:15:20.259Z,92.60
2018-01-06T22:17:49.476Z,92.80
2018-01-06T22:20:18.868Z,92.70
2018-01-06T22:22:47.762Z,92.70
2018-01-06T22:25:15.878Z,92.80
2018-01-06T22:27:45.046Z,92.80
2018-01-06T22:30:13.244Z,92.80
2018-01-06T22:32:42.156Z,92.60
2018-01-06T22:35:11.653Z,92.60
2018-01-06T22:37:41.149Z,92.60
2018-01-06T22:40:09.541Z,92.60
2018-01-06T22:42:38.631Z,92.50
2018-01-06T22:45:06.891Z,92.60
2018-01-06T22:47:35.787Z,92.50
2018-01-06T22:50:06.487Z,92.20
2018-01-06T22:52:35.452Z,92.20
2018-01-06T22:55:04.495Z,92.20
2018-01-06T22:57:32.658Z,92.30
2018-01-06T23:00:01.948Z,92.30
2018-01-06T23:02:30.627Z,92.40
2018-01-06T23:04:59.819Z,92.30
2018-01-06T23:07:28.402Z,92.40
2018-01-06T23:09:56.808Z,92.30
2018-01-06T23:12:26.425Z,92.10
2018-01-06T23:14:55.392Z,92.20
2018-01-06T23:17:25.005Z,92.30
2018-01-06T23:19:54.128Z,92.40
2018-01-06T23:22:23.445Z,92.30
2018-01-06T23:24:51.837Z,92.30
2018-01-06T23:27:20.373Z,92.40
2018-01-06T23:29:49.787Z,92.70
2018-01-06T23:32:18.045Z,92.70
2018-01-06T23:34:46.665Z,92.70
2018-01-06T23:37:25.424Z,92.60
2018-01-06T23:39:54.126Z,92.50
2018-01-06T23:42:25.427Z,92.50
2018-01-06T23:44:54.987Z,92.50
2018-01-06T23:47:24.482Z,92.50
2018-01-06T23:49:54.391Z,92.50
2018-01-06T23:52:23.718Z,92.50
2018-01-06T23:54:53.346Z,92.50
2018-01-06T23:57:23.014Z,92.40
2018-01-06T23:59:51.610Z,92.40
